sensor_id;sensor_type;location;lat;lon;timestamp;pressure;altitude;pressure_sealevel;temperature;humidity
21359;BME280;13506;50.852;20.632;2023-04-25T00:02:04;97026.97;;;12.45;67.14
21359;BME280;13506;50.852;20.632;2023-04-25T00:04:33;97022.56;;;12.45;67.58
21359;BME280;13506;50.852;20.632;2023-04-25T00:07:01;97032.53;;;12.42;67.62
21359;BME280;13506;50.852;20.632;2023-04-25T00:09:29;97026.97;;;12.45;67.17
21359;BME280;13506;50.852;20.632;2023-04-25T00:11:58;97024.81;;;12.40;67.25
21359;BME280;13506;50.852;20.632;2023-04-25T00:14:28;97017.44;;;12.44;66.03
21359;BME280;13506;50.852;20.632;2023-04-25T00:16:56;97019.59;;;12.40;66.75
21359;BME280;13506;50.852;20.632;2023-04-25T00:19:24;97012.56;;;12.49;65.50
21359;BME280;13506;50.852;20.632;2023-04-25T00:21:53;97019.16;;;12.53;65.30
21359;BME280;13506;50.852;20.632;2023-04-25T00:24:21;97016.22;;;12.56;65.25
21359;BME280;13506;50.852;20.632;2023-04-25T00:26:49;97015.53;;;12.54;66.29
21359;BME280;13506;50.852;20.632;2023-04-25T00:29:18;97006.03;;;12.53;66.04
21359;BME280;13506;50.852;20.632;2023-04-25T00:31:46;97011.13;;;12.54;65.98
21359;BME280;13506;50.852;20.632;2023-04-25T00:34:14;97016.56;;;12.61;65.50
21359;BME280;13506;50.852;20.632;2023-04-25T00:36:42;97012.66;;;12.65;65.06
21359;BME280;13506;50.852;20.632;2023-04-25T00:39:11;97014.00;;;12.69;64.92
21359;BME280;13506;50.852;20.632;2023-04-25T00:41:39;97009.09;;;12.74;65.32
21359;BME280;13506;50.852;20.632;2023-04-25T00:44:09;97002.53;;;12.78;64.96
21359;BME280;13506;50.852;20.632;2023-04-25T00:46:41;97010.09;;;12.82;65.36
21359;BME280;13506;50.852;20.632;2023-04-25T00:49:10;97007.00;;;12.86;65.17
21359;BME280;13506;50.852;20.632;2023-04-25T00:51:42;97014.03;;;12.86;65.62
21359;BME280;13506;50.852;20.632;2023-04-25T00:54:11;97003.91;;;12.91;65.16
21359;BME280;13506;50.852;20.632;2023-04-25T00:56:39;97005.22;;;12.95;65.35
21359;BME280;13506;50.852;20.632;2023-04-25T00:59:08;97003.09;;;12.98;65.02
21359;BME280;13506;50.852;20.632;2023-04-25T01:01:37;97007.53;;;12.98;65.64
21359;BME280;13506;50.852;20.632;2023-04-25T01:04:07;97001.97;;;13.01;65.12
21359;BME280;13506;50.852;20.632;2023-04-25T01:06:36;97014.09;;;13.02;64.88
21359;BME280;13506;50.852;20.632;2023-04-25T01:09:04;97006.88;;;13.04;64.53
21359;BME280;13506;50.852;20.632;2023-04-25T01:11:32;97006.22;;;13.02;64.94
21359;BME280;13506;50.852;20.632;2023-04-25T01:14:01;97001.31;;;13.07;64.82
21359;BME280;13506;50.852;20.632;2023-04-25T01:16:29;96998.69;;;13.07;64.34
21359;BME280;13506;50.852;20.632;2023-04-25T01:18:58;97006.41;;;13.09;64.66
21359;BME280;13506;50.852;20.632;2023-04-25T01:21:28;96992.47;;;13.08;64.51
21359;BME280;13506;50.852;20.632;2023-04-25T01:23:57;97001.16;;;13.09;65.26
21359;BME280;13506;50.852;20.632;2023-04-25T01:26:26;96996.91;;;13.08;65.65
21359;BME280;13506;50.852;20.632;2023-04-25T01:28:55;96992.97;;;13.12;64.76
21359;BME280;13506;50.852;20.632;2023-04-25T01:31:23;96993.13;;;13.10;65.18
21359;BME280;13506;50.852;20.632;2023-04-25T01:33:52;96985.56;;;13.07;65.32
21359;BME280;13506;50.852;20.632;2023-04-25T01:36:22;96982.63;;;13.10;65.09
21359;BME280;13506;50.852;20.632;2023-04-25T01:38:52;96986.88;;;13.11;64.93
21359;BME280;13506;50.852;20.632;2023-04-25T01:41:20;96991.81;;;13.14;65.06
21359;BME280;13506;50.852;20.632;2023-04-25T01:43:50;96982.63;;;13.10;65.96
21359;BME280;13506;50.852;20.632;2023-04-25T01:46:18;96982.63;;;13.10;66.72
21359;BME280;13506;50.852;20.632;2023-04-25T01:48:46;96985.56;;;13.07;67.07
21359;BME280;13506;50.852;20.632;2023-04-25T01:51:14;96978.81;;;13.05;68.57
21359;BME280;13506;50.852;20.632;2023-04-25T01:53:43;96983.22;;;12.96;70.40
21359;BME280;13506;50.852;20.632;2023-04-25T01:56:13;96978.13;;;12.86;71.94
21359;BME280;13506;50.852;20.632;2023-04-25T01:58:41;96974.66;;;12.86;72.26
21359;BME280;13506;50.852;20.632;2023-04-25T02:01:28;96975.31;;;12.79;72.66
21359;BME280;13506;50.852;20.632;2023-04-25T02:04:13;96980.56;;;12.79;72.93
21359;BME280;13506;50.852;20.632;2023-04-25T02:06:43;96981.22;;;12.73;73.58
21359;BME280;13506;50.852;20.632;2023-04-25T02:09:11;96983.44;;;12.60;75.33
21359;BME280;13506;50.852;20.632;2023-04-25T02:11:46;96972.59;;;12.55;76.24
21359;BME280;13506;50.852;20.632;2023-04-25T02:14:34;96973.56;;;12.54;75.97
21359;BME280;13506;50.852;20.632;2023-04-25T02:17:12;96975.53;;;12.52;76.20
21359;BME280;13506;50.852;20.632;2023-04-25T02:19:40;96972.38;;;12.40;77.04
21359;BME280;13506;50.852;20.632;2023-04-25T02:22:08;96973.94;;;12.25;79.47
21359;BME280;13506;50.852;20.632;2023-04-25T02:24:38;96983.06;;;12.21;79.97
21359;BME280;13506;50.852;20.632;2023-04-25T02:27:07;96982.00;;;12.31;79.35
21359;BME280;13506;50.852;20.632;2023-04-25T02:29:36;96975.25;;;12.29;79.92
21359;BME280;13506;50.852;20.632;2023-04-25T02:32:04;96978.72;;;12.29;79.71
21359;BME280;13506;50.852;20.632;2023-04-25T02:34:32;96973.09;;;12.24;81.21
21359;BME280;13506;50.852;20.632;2023-04-25T02:37:01;96983.59;;;12.24;81.16
21359;BME280;13506;50.852;20.632;2023-04-25T02:39:29;96981.34;;;12.29;81.00
21359;BME280;13506;50.852;20.632;2023-04-25T02:41:57;96980.19;;;12.32;79.94
21359;BME280;13506;50.852;20.632;2023-04-25T02:44:26;96985.97;;;12.35;79.73
21359;BME280;13506;50.852;20.632;2023-04-25T02:46:54;96967.09;;;12.32;80.97
21359;BME280;13506;50.852;20.632;2023-04-25T02:49:24;96972.28;;;11.97;86.27
21359;BME280;13506;50.852;20.632;2023-04-25T02:51:52;96981.22;;;11.87;86.98
21359;BME280;13506;50.852;20.632;2023-04-25T02:54:20;96979.94;;;11.91;85.11
21359;BME280;13506;50.852;20.632;2023-04-25T02:56:49;96968.78;;;11.71;89.72
21359;BME280;13506;50.852;20.632;2023-04-25T02:59:23;96977.41;;;11.63;91.54
21359;BME280;13506;50.852;20.632;2023-04-25T03:01:53;96975.63;;;11.64;90.61
21359;BME280;13506;50.852;20.632;2023-04-25T03:04:22;96978.03;;;11.57;91.51
21359;BME280;13506;50.852;20.632;2023-04-25T03:06:51;96984.97;;;11.48;92.23
21359;BME280;13506;50.852;20.632;2023-04-25T03:09:21;96968.59;;;11.46;91.63
21359;BME280;13506;50.852;20.632;2023-04-25T03:11:49;96975.66;;;11.28;90.13
21359;BME280;13506;50.852;20.632;2023-04-25T03:14:18;96973.00;;;11.10;90.76
21359;BME280;13506;50.852;20.632;2023-04-25T03:16:46;96992.59;;;11.06;89.87
21359;BME280;13506;50.852;20.632;2023-04-25T03:19:15;96985.22;;;10.91;91.37
21359;BME280;13506;50.852;20.632;2023-04-25T03:21:44;96978.69;;;10.78;91.72
21359;BME280;13506;50.852;20.632;2023-04-25T03:24:13;96979.66;;;10.77;92.27
21359;BME280;13506;50.852;20.632;2023-04-25T03:26:41;96980.63;;;10.75;91.86
21359;BME280;13506;50.852;20.632;2023-04-25T03:29:09;96978.78;;;10.58;92.43
21359;BME280;13506;50.852;20.632;2023-04-25T03:31:39;96979.59;;;10.59;91.76
21359;BME280;13506;50.852;20.632;2023-04-25T03:34:07;96980.75;;;10.46;92.71
21359;BME280;13506;50.852;20.632;2023-04-25T03:36:36;96986.97;;;10.45;92.09
21359;BME280;13506;50.852;20.632;2023-04-25T03:39:05;96993.97;;;10.45;92.86
21359;BME280;13506;50.852;20.632;2023-04-25T03:41:33;96989.91;;;10.32;94.78
21359;BME280;13506;50.852;20.632;2023-04-25T03:44:06;96989.91;;;10.32;93.49
21359;BME280;13506;50.852;20.632;2023-04-25T03:46:34;96991.53;;;10.33;94.80
21359;BME280;13506;50.852;20.632;2023-04-25T03:49:03;96997.06;;;10.30;95.51
21359;BME280;13506;50.852;20.632;2023-04-25T03:51:52;96989.94;;;10.23;94.50
21359;BME280;13506;50.852;20.632;2023-04-25T03:54:20;97010.44;;;10.18;94.49
21359;BME280;13506;50.852;20.632;2023-04-25T03:57:14;96999.84;;;10.19;95.63
21359;BME280;13506;50.852;20.632;2023-04-25T03:59:43;97006.03;;;10.18;95.43
21359;BME280;13506;50.852;20.632;2023-04-25T04:02:14;96998.22;;;10.08;95.62
21359;BME280;13506;50.852;20.632;2023-04-25T04:04:42;97003.19;;;10.11;94.90
21359;BME280;13506;50.852;20.632;2023-04-25T04:07:12;96996.28;;;10.20;94.00
21359;BME280;13506;50.852;20.632;2023-04-25T04:09:42;97000.81;;;10.28;94.68
21359;BME280;13506;50.852;20.632;2023-04-25T04:12:16;97006.16;;;10.26;95.19
21359;BME280;13506;50.852;20.632;2023-04-25T04:14:44;97015.13;;;10.14;97.37
21359;BME280;13506;50.852;20.632;2023-04-25T04:17:12;97017.44;;;10.17;96.97
21359;BME280;13506;50.852;20.632;2023-04-25T04:19:40;97020.88;;;10.27;94.96
21359;BME280;13506;50.852;20.632;2023-04-25T04:22:13;97024.84;;;10.31;95.57
21359;BME280;13506;50.852;20.632;2023-04-25T04:24:41;97014.25;;;10.33;96.96
21359;BME280;13506;50.852;20.632;2023-04-25T04:27:11;97028.81;;;10.35;96.79
21359;BME280;13506;50.852;20.632;2023-04-25T04:29:47;97032.03;;;10.20;97.47
21359;BME280;13506;50.852;20.632;2023-04-25T04:32:29;97028.06;;;10.16;98.91
21359;BME280;13506;50.852;20.632;2023-04-25T04:34:59;97035.59;;;10.19;97.28
21359;BME280;13506;50.852;20.632;2023-04-25T04:37:28;97032.06;;;10.10;98.05
21359;BME280;13506;50.852;20.632;2023-04-25T04:39:58;97032.88;;;10.10;97.49
21359;BME280;13506;50.852;20.632;2023-04-25T04:42:38;97040.84;;;10.19;97.38
21359;BME280;13506;50.852;20.632;2023-04-25T04:45:26;97034.09;;;10.16;97.76
21359;BME280;13506;50.852;20.632;2023-04-25T04:48:21;97033.97;;;10.18;97.73
21359;BME280;13506;50.852;20.632;2023-04-25T04:51:12;97038.78;;;10.22;97.11
21359;BME280;13506;50.852;20.632;2023-04-25T04:54:07;97028.31;;;10.22;98.30
21359;BME280;13506;50.852;20.632;2023-04-25T04:56:35;97038.63;;;10.24;97.05
21359;BME280;13506;50.852;20.632;2023-04-25T04:59:28;97034.22;;;10.24;98.14
21359;BME280;13506;50.852;20.632;2023-04-25T05:02:07;97030.78;;;10.24;97.43
21359;BME280;13506;50.852;20.632;2023-04-25T05:05:00;97030.13;;;10.22;97.95
21359;BME280;13506;50.852;20.632;2023-04-25T05:07:58;97042.75;;;10.26;96.91
21359;BME280;13506;50.852;20.632;2023-04-25T05:10:41;97045.50;;;10.25;97.25
21359;BME280;13506;50.852;20.632;2023-04-25T05:13:36;97050.03;;;10.23;96.76
21359;BME280;13506;50.852;20.632;2023-04-25T05:16:39;97054.03;;;10.17;96.03
21359;BME280;13506;50.852;20.632;2023-04-25T05:19:30;97054.31;;;10.14;97.93
21359;BME280;13506;50.852;20.632;2023-04-25T05:22:33;97046.50;;;10.14;97.30
21359;BME280;13506;50.852;20.632;2023-04-25T05:25:19;97043.88;;;10.04;98.60
21359;BME280;13506;50.852;20.632;2023-04-25T05:28:06;97047.22;;;9.97;97.29
21359;BME280;13506;50.852;20.632;2023-04-25T05:30:51;97032.34;;;9.97;97.29
21359;BME280;13506;50.852;20.632;2023-04-25T05:33:22;97040.63;;;9.92;97.99
21359;BME280;13506;50.852;20.632;2023-04-25T05:35:50;97052.69;;;9.93;97.56
21359;BME280;13506;50.852;20.632;2023-04-25T05:38:19;97043.47;;;9.89;98.01
21359;BME280;13506;50.852;20.632;2023-04-25T05:41:13;97059.03;;;9.81;98.10
21359;BME280;13506;50.852;20.632;2023-04-25T05:43:46;97054.06;;;9.78;98.20
21359;BME280;13506;50.852;20.632;2023-04-25T05:46:36;97054.06;;;9.78;96.85
21359;BME280;13506;50.852;20.632;2023-04-25T05:49:10;97061.75;;;9.70;96.75
21359;BME280;13506;50.852;20.632;2023-04-25T05:51:48;97052.00;;;9.62;96.64
21359;BME280;13506;50.852;20.632;2023-04-25T05:54:30;97064.38;;;9.60;96.63
21359;BME280;13506;50.852;20.632;2023-04-25T05:56:58;97060.66;;;9.53;98.00
21359;BME280;13506;50.852;20.632;2023-04-25T05:59:27;97067.53;;;9.54;98.57
21359;BME280;13506;50.852;20.632;2023-04-25T06:01:56;97059.00;;;9.52;98.21
21359;BME280;13506;50.852;20.632;2023-04-25T06:04:24;97064.50;;;9.39;99.33
21359;BME280;13506;50.852;20.632;2023-04-25T06:06:52;97073.53;;;9.45;98.33
21359;BME280;13506;50.852;20.632;2023-04-25T06:09:22;97081.25;;;9.46;98.25
21359;BME280;13506;50.852;20.632;2023-04-25T06:11:51;97073.72;;;9.43;98.47
21359;BME280;13506;50.852;20.632;2023-04-25T06:14:18;97081.81;;;9.50;97.75
21359;BME280;13506;50.852;20.632;2023-04-25T06:16:51;97074.94;;;9.49;98.91
21359;BME280;13506;50.852;20.632;2023-04-25T06:19:19;97081.28;;;9.56;98.63
21359;BME280;13506;50.852;20.632;2023-04-25T06:21:47;97081.25;;;9.66;98.20
21359;BME280;13506;50.852;20.632;2023-04-25T06:24:15;97081.53;;;9.72;97.45
21359;BME280;13506;50.852;20.632;2023-04-25T06:26:44;97083.34;;;9.72;97.64
21359;BME280;13506;50.852;20.632;2023-04-25T06:29:14;97092.28;;;9.69;97.28
21359;BME280;13506;50.852;20.632;2023-04-25T06:31:42;97092.53;;;9.66;96.94
21359;BME280;13506;50.852;20.632;2023-04-25T06:34:12;97098.56;;;9.57;99.23
21359;BME280;13506;50.852;20.632;2023-04-25T06:36:41;97098.03;;;9.63;97.73
21359;BME280;13506;50.852;20.632;2023-04-25T06:39:14;97101.22;;;9.67;96.80
21359;BME280;13506;50.852;20.632;2023-04-25T06:41:42;97102.72;;;9.69;96.91
21359;BME280;13506;50.852;20.632;2023-04-25T06:44:30;97107.81;;;9.71;96.47
21359;BME280;13506;50.852;20.632;2023-04-25T06:46:58;97106.16;;;9.70;94.88
21359;BME280;13506;50.852;20.632;2023-04-25T06:49:28;97103.00;;;9.76;94.59
21359;BME280;13506;50.852;20.632;2023-04-25T06:51:56;97108.50;;;9.73;94.79
21359;BME280;13506;50.852;20.632;2023-04-25T06:54:25;97109.03;;;9.67;95.00
21359;BME280;13506;50.852;20.632;2023-04-25T06:57:02;97102.16;;;9.56;94.00
21359;BME280;13506;50.852;20.632;2023-04-25T06:59:32;97112.56;;;9.46;94.96
21359;BME280;13506;50.852;20.632;2023-04-25T07:02:00;97113.25;;;9.39;95.21
21359;BME280;13506;50.852;20.632;2023-04-25T07:04:30;97109.00;;;9.38;95.07
21359;BME280;13506;50.852;20.632;2023-04-25T07:06:59;97103.47;;;9.31;94.95
21359;BME280;13506;50.852;20.632;2023-04-25T07:09:37;97110.72;;;9.18;95.09
21359;BME280;13506;50.852;20.632;2023-04-25T07:12:06;97095.38;;;9.24;96.06
21359;BME280;13506;50.852;20.632;2023-04-25T07:14:35;97117.72;;;9.17;96.37
21359;BME280;13506;50.852;20.632;2023-04-25T07:17:03;97104.38;;;9.10;96.26
21359;BME280;13506;50.852;20.632;2023-04-25T07:19:35;97114.81;;;9.10;97.00
21359;BME280;13506;50.852;20.632;2023-04-25T07:22:06;97121.78;;;9.00;97.70
21359;BME280;13506;50.852;20.632;2023-04-25T07:24:36;97119.22;;;9.10;97.09
21359;BME280;13506;50.852;20.632;2023-04-25T07:27:08;97119.09;;;9.11;97.87
21359;BME280;13506;50.852;20.632;2023-04-25T07:29:50;97133.91;;;9.11;96.25
21359;BME280;13506;50.852;20.632;2023-04-25T07:32:18;97136.91;;;9.06;97.16
21359;BME280;13506;50.852;20.632;2023-04-25T07:34:47;97134.94;;;8.99;95.51
21359;BME280;13506;50.852;20.632;2023-04-25T07:37:16;97129.19;;;8.95;95.69
21359;BME280;13506;50.852;20.632;2023-04-25T07:39:58;97132.22;;;9.00;95.69
21359;BME280;13506;50.852;20.632;2023-04-25T07:42:27;97130.56;;;8.99;95.77
21359;BME280;13506;50.852;20.632;2023-04-25T07:44:55;97134.09;;;8.88;96.56
21359;BME280;13506;50.852;20.632;2023-04-25T07:47:23;97131.78;;;8.95;95.69
21359;BME280;13506;50.852;20.632;2023-04-25T07:49:54;97126.44;;;8.97;94.08
21359;BME280;13506;50.852;20.632;2023-04-25T07:52:23;97142.47;;;8.92;93.93
21359;BME280;13506;50.852;20.632;2023-04-25T07:55:00;97138.16;;;8.81;95.76
21359;BME280;13506;50.852;20.632;2023-04-25T07:57:40;97151.97;;;8.93;96.22
21359;BME280;13506;50.852;20.632;2023-04-25T08:00:09;97136.56;;;8.90;96.13
21359;BME280;13506;50.852;20.632;2023-04-25T08:02:43;97137.41;;;8.90;95.63
21359;BME280;13506;50.852;20.632;2023-04-25T08:05:17;97141.53;;;8.93;96.46
21359;BME280;13506;50.852;20.632;2023-04-25T08:07:50;97139.88;;;8.92;95.17
21359;BME280;13506;50.852;20.632;2023-04-25T08:10:19;97151.38;;;8.89;94.17
21359;BME280;13506;50.852;20.632;2023-04-25T08:12:50;97152.47;;;8.87;95.15
21359;BME280;13506;50.852;20.632;2023-04-25T08:15:18;97143.13;;;8.84;94.17
21359;BME280;13506;50.852;20.632;2023-04-25T08:17:47;97155.09;;;8.87;93.89
21359;BME280;13506;50.852;20.632;2023-04-25T08:20:17;97152.06;;;8.61;95.48
21359;BME280;13506;50.852;20.632;2023-04-25T08:22:45;97159.22;;;8.68;94.19
21359;BME280;13506;50.852;20.632;2023-04-25T08:25:28;97162.81;;;8.67;94.06
21359;BME280;13506;50.852;20.632;2023-04-25T08:27:56;97152.63;;;8.64;95.35
21359;BME280;13506;50.852;20.632;2023-04-25T08:30:26;97166.63;;;8.63;96.27
21359;BME280;13506;50.852;20.632;2023-04-25T08:32:54;97166.88;;;8.60;96.34
21359;BME280;13506;50.852;20.632;2023-04-25T08:35:59;97163.81;;;8.76;95.56
21359;BME280;13506;50.852;20.632;2023-04-25T08:38:29;97164.41;;;8.80;95.19
21359;BME280;13506;50.852;20.632;2023-04-25T08:41:00;97166.72;;;8.83;95.68
21359;BME280;13506;50.852;20.632;2023-04-25T08:43:30;97176.25;;;8.93;95.37
21359;BME280;13506;50.852;20.632;2023-04-25T08:46:00;97171.78;;;9.05;94.94
21359;BME280;13506;50.852;20.632;2023-04-25T08:48:40;97179.75;;;9.13;95.30
21359;BME280;13506;50.852;20.632;2023-04-25T08:51:20;97174.88;;;9.20;95.67
21359;BME280;13506;50.852;20.632;2023-04-25T08:53:51;97177.09;;;9.25;94.25
21359;BME280;13506;50.852;20.632;2023-04-25T08:56:21;97182.03;;;9.28;93.43
21359;BME280;13506;50.852;20.632;2023-04-25T08:58:50;97179.00;;;9.32;92.38
21359;BME280;13506;50.852;20.632;2023-04-25T09:01:19;97176.81;;;9.28;91.53
21359;BME280;13506;50.852;20.632;2023-04-25T09:03:51;97190.53;;;9.20;89.01
21359;BME280;13506;50.852;20.632;2023-04-25T09:06:21;97192.97;;;9.12;88.87
21359;BME280;13506;50.852;20.632;2023-04-25T09:08:51;97189.00;;;8.87;87.89
21359;BME280;13506;50.852;20.632;2023-04-25T09:11:19;97198.72;;;8.85;89.35
21359;BME280;13506;50.852;20.632;2023-04-25T09:13:47;97199.13;;;8.80;90.11
21359;BME280;13506;50.852;20.632;2023-04-25T09:16:58;97198.16;;;8.81;90.32
21359;BME280;13506;50.852;20.632;2023-04-25T09:20:06;97203.63;;;8.99;89.90
21359;BME280;13506;50.852;20.632;2023-04-25T09:22:37;97200.78;;;9.12;91.65
21359;BME280;13506;50.852;20.632;2023-04-25T09:25:09;97195.47;;;9.23;90.31
21359;BME280;13506;50.852;20.632;2023-04-25T09:27:50;97203.06;;;9.36;88.96
21359;BME280;13506;50.852;20.632;2023-04-25T09:30:30;97196.13;;;9.46;86.82
21359;BME280;13506;50.852;20.632;2023-04-25T09:33:11;97207.25;;;9.48;85.60
21359;BME280;13506;50.852;20.632;2023-04-25T09:35:45;97203.13;;;9.56;85.45
21359;BME280;13506;50.852;20.632;2023-04-25T09:38:30;97194.19;;;9.48;84.67
21359;BME280;13506;50.852;20.632;2023-04-25T09:41:08;97203.13;;;9.56;84.40
21359;BME280;13506;50.852;20.632;2023-04-25T09:43:45;97199.19;;;9.61;84.38
21359;BME280;13506;50.852;20.632;2023-04-25T09:46:14;97209.78;;;9.69;84.02
21359;BME280;13506;50.852;20.632;2023-04-25T09:48:51;97199.22;;;9.71;83.56
21359;BME280;13506;50.852;20.632;2023-04-25T09:51:28;97200.97;;;9.61;81.69
21359;BME280;13506;50.852;20.632;2023-04-25T09:54:00;97209.06;;;9.58;81.93
21359;BME280;13506;50.852;20.632;2023-04-25T09:56:36;97208.75;;;9.51;80.17
21359;BME280;13506;50.852;20.632;2023-04-25T09:59:07;97206.59;;;9.25;79.78
21359;BME280;13506;50.852;20.632;2023-04-25T10:01:40;97204.56;;;9.29;80.04
21359;BME280;13506;50.852;20.632;2023-04-25T10:04:19;97209.63;;;9.21;79.60
21359;BME280;13506;50.852;20.632;2023-04-25T10:07:21;97208.84;;;9.09;81.54
21359;BME280;13506;50.852;20.632;2023-04-25T10:09:58;97216.88;;;9.17;81.13
21359;BME280;13506;50.852;20.632;2023-04-25T10:12:27;97210.41;;;9.11;82.36
21359;BME280;13506;50.852;20.632;2023-04-25T10:14:55;97203.44;;;9.22;80.69
21359;BME280;13506;50.852;20.632;2023-04-25T10:17:24;97214.63;;;9.33;80.79
21359;BME280;13506;50.852;20.632;2023-04-25T10:19:54;97208.41;;;9.25;80.22
21359;BME280;13506;50.852;20.632;2023-04-25T10:22:29;97206.09;;;9.31;77.81
21359;BME280;13506;50.852;20.632;2023-04-25T10:25:01;97198.78;;;9.25;76.87
21359;BME280;13506;50.852;20.632;2023-04-25T10:27:31;97209.00;;;9.38;75.52
21359;BME280;13506;50.852;20.632;2023-04-25T10:30:03;97204.59;;;9.39;75.98
21359;BME280;13506;50.852;20.632;2023-04-25T10:32:33;97205.56;;;9.38;75.67
21359;BME280;13506;50.852;20.632;2023-04-25T10:35:11;97209.47;;;9.53;75.16
21359;BME280;13506;50.852;20.632;2023-04-25T10:40:24;97178.97;;;9.63;74.04
21359;BME280;13506;50.852;20.632;2023-04-25T10:42:52;97201.75;;;9.51;73.13
21359;BME280;13506;50.852;20.632;2023-04-25T10:45:21;97196.53;;;9.51;73.27
21359;BME280;13506;50.852;20.632;2023-04-25T10:47:49;97198.44;;;9.49;72.46
21359;BME280;13506;50.852;20.632;2023-04-25T10:50:17;97210.78;;;9.38;72.93
21359;BME280;13506;50.852;20.632;2023-04-25T10:52:45;97196.81;;;9.48;71.68
21359;BME280;13506;50.852;20.632;2023-04-25T10:55:13;97199.75;;;9.24;70.49
21359;BME280;13506;50.852;20.632;2023-04-25T10:57:44;97193.50;;;9.16;70.85
21359;BME280;13506;50.852;20.632;2023-04-25T11:00:15;97195.59;;;9.22;71.08
21359;BME280;13506;50.852;20.632;2023-04-25T11:02:45;97194.66;;;9.23;71.18
21359;BME280;13506;50.852;20.632;2023-04-25T11:05:23;97210.56;;;9.20;69.48
21359;BME280;13506;50.852;20.632;2023-04-25T11:07:56;97198.38;;;9.30;68.90
21359;BME280;13506;50.852;20.632;2023-04-25T11:10:27;97207.59;;;9.34;70.11
21359;BME280;13506;50.852;20.632;2023-04-25T11:12:57;97198.16;;;9.43;71.48
21359;BME280;13506;50.852;20.632;2023-04-25T11:15:27;97212.66;;;9.26;71.40
21359;BME280;13506;50.852;20.632;2023-04-25T11:17:55;97210.13;;;9.45;71.02
21359;BME280;13506;50.852;20.632;2023-04-25T11:20:26;97207.47;;;9.36;72.25
21359;BME280;13506;50.852;20.632;2023-04-25T11:22:57;97205.84;;;9.44;71.74
21359;BME280;13506;50.852;20.632;2023-04-25T11:25:27;97198.72;;;9.16;72.57
21359;BME280;13506;50.852;20.632;2023-04-25T11:27:59;97207.59;;;9.34;73.59
21359;BME280;13506;50.852;20.632;2023-04-25T11:30:28;97207.59;;;9.34;73.97
21359;BME280;13506;50.852;20.632;2023-04-25T11:32:57;97214.72;;;9.32;74.21
21359;BME280;13506;50.852;20.632;2023-04-25T11:35:25;97219.72;;;9.35;73.88
21359;BME280;13506;50.852;20.632;2023-04-25T11:37:53;97212.19;;;9.42;73.77
21359;BME280;13506;50.852;20.632;2023-04-25T11:40:21;97213.91;;;9.31;73.38
21359;BME280;13506;50.852;20.632;2023-04-25T11:42:49;97208.41;;;9.25;72.66
21359;BME280;13506;50.852;20.632;2023-04-25T11:45:19;97211.94;;;9.24;70.05
21359;BME280;13506;50.852;20.632;2023-04-25T11:47:47;97211.41;;;9.20;69.78
21359;BME280;13506;50.852;20.632;2023-04-25T11:50:15;97215.75;;;9.10;70.13
21359;BME280;13506;50.852;20.632;2023-04-25T11:52:44;97209.72;;;9.09;69.86
21359;BME280;13506;50.852;20.632;2023-04-25T11:55:14;97198.91;;;8.93;69.40
21359;BME280;13506;50.852;20.632;2023-04-25T11:57:43;97203.63;;;8.99;69.01
21359;BME280;13506;50.852;20.632;2023-04-25T12:00:15;97206.47;;;8.75;68.50
21359;BME280;13506;50.852;20.632;2023-04-25T12:02:46;97209.84;;;8.87;68.78
21359;BME280;13506;50.852;20.632;2023-04-25T12:05:15;97199.59;;;8.95;67.71
21359;BME280;13506;50.852;20.632;2023-04-25T12:07:43;97201.53;;;8.93;66.49
21359;BME280;13506;50.852;20.632;2023-04-25T12:10:13;97203.63;;;8.99;67.09
21359;BME280;13506;50.852;20.632;2023-04-25T12:12:43;97197.88;;;9.05;67.18
21359;BME280;13506;50.852;20.632;2023-04-25T12:15:14;97200.41;;;9.17;67.55
21359;BME280;13506;50.852;20.632;2023-04-25T12:17:47;97203.44;;;9.22;69.17
21359;BME280;13506;50.852;20.632;2023-04-25T12:20:17;97203.44;;;9.22;68.73
21359;BME280;13506;50.852;20.632;2023-04-25T12:22:47;97200.06;;;9.31;68.63
21359;BME280;13506;50.852;20.632;2023-04-25T12:25:35;97210.25;;;9.44;69.36
21359;BME280;13506;50.852;20.632;2023-04-25T12:28:11;97200.22;;;9.39;69.89
21359;BME280;13506;50.852;20.632;2023-04-25T12:30:56;97212.31;;;9.40;69.37
21359;BME280;13506;50.852;20.632;2023-04-25T12:33:29;97213.34;;;9.28;70.30
21359;BME280;13506;50.852;20.632;2023-04-25T12:35:58;97200.97;;;9.20;72.41
21359;BME280;13506;50.852;20.632;2023-04-25T12:38:28;97200.81;;;9.22;71.83
21359;BME280;13506;50.852;20.632;2023-04-25T12:40:57;97205.63;;;9.17;73.21
21359;BME280;13506;50.852;20.632;2023-04-25T12:43:25;97198.72;;;9.16;73.63
21359;BME280;13506;50.852;20.632;2023-04-25T12:45:55;97208.09;;;9.18;73.88
21359;BME280;13506;50.852;20.632;2023-04-25T12:48:23;97206.47;;;9.27;74.39
21359;BME280;13506;50.852;20.632;2023-04-25T12:50:52;97206.91;;;9.32;74.70
21359;BME280;13506;50.852;20.632;2023-04-25T12:53:22;97200.22;;;9.39;74.95
21359;BME280;13506;50.852;20.632;2023-04-25T12:55:51;97196.38;;;9.43;75.29
21359;BME280;13506;50.852;20.632;2023-04-25T12:58:19;97206.84;;;9.43;76.05
21359;BME280;13506;50.852;20.632;2023-04-25T13:00:47;97207.53;;;9.45;75.93
21359;BME280;13506;50.852;20.632;2023-04-25T13:03:15;97203.25;;;9.44;78.15
21359;BME280;13506;50.852;20.632;2023-04-25T13:05:44;97189.53;;;9.52;76.17
21359;BME280;13506;50.852;20.632;2023-04-25T13:08:14;97196.28;;;9.54;75.57
21359;BME280;13506;50.852;20.632;2023-04-25T13:10:42;97194.06;;;9.60;76.18
21359;BME280;13506;50.852;20.632;2023-04-25T13:13:10;97187.91;;;9.61;75.55
21359;BME280;13506;50.852;20.632;2023-04-25T13:15:38;97191.47;;;9.60;77.91
21359;BME280;13506;50.852;20.632;2023-04-25T13:18:06;97193.91;;;9.51;78.48
21359;BME280;13506;50.852;20.632;2023-04-25T13:20:34;97191.75;;;9.57;78.21
21359;BME280;13506;50.852;20.632;2023-04-25T13:23:02;97197.81;;;9.67;78.46
21359;BME280;13506;50.852;20.632;2023-04-25T13:25:31;97199.47;;;9.68;78.08